Great Falls/Malmstrom AFB, Montana
Current Conditions -  °F | °C
As of 1:53 AM on Thursday 18 Dec 2014 (Local Time) from KGTF Reporting Station
Clear Clear  
Wind Chill: -6°   Ceiling: Unl
Heat Index: -1°   Visibility: 10mi
Dew Point: -4°   Wind: 12mph
Humidity: 79%   Direction: 200°SSW
Pressure: 29.88"   Gusts: NA
Location:  47.47°N, 111.32°W
Report Text: KGTF 180853Z 20010KT 10SM CLR M01/M04 A2988 RMK AO2 SLP151 T10111044 58002
Loading
Personal Weather Stations






























Interactive Weather Map New forecast layout! Learn more

10-Day Weather Forecast

Advertisements
Track Severe Weather on mobile